Time;durP1;ratioP1;P1;durP2;ratioP2;P2;SDS_P1;SDS_P2;PMS_P1;PMS_P2;Temp;Humidity;BMP_temperature;BMP_pressure;BME280_temperature;BME280_humidity;BME280_pressure;Samples;Min_cycle;Max_cycle;Signal;HPM_P1;HPM_P2
2022/04/24 00:01:24;;;;;;;0.70;0.70;;;4.10;99.80;;;;;;4994017;28;20198;-81
2022/04/24 00:03:50;;;;;;;0.75;0.75;;;4.00;99.90;;;;;;4994122;28;20266;-79
2022/04/24 00:06:16;;;;;;;0.70;0.70;;;4.00;99.90;;;;;;4976631;28;20206;-80
2022/04/24 00:08:42;;;;;;;0.75;0.75;;;4.10;99.90;;;;;;4976585;28;20196;-80
2022/04/24 00:11:07;;;;;;;0.70;0.70;;;4.10;99.90;;;;;;4976547;28;20204;-79
2022/04/24 00:13:38;;;;;;;0.68;0.68;;;4.00;99.90;;;;;;4993842;28;20239;-79
2022/04/24 00:16:06;;;;;;;0.77;0.77;;;4.10;99.90;;;;;;4992478;28;20294;-79
2022/04/24 00:18:32;;;;;;;0.70;0.70;;;4.10;99.90;;;;;;4991208;28;20274;-79
2022/04/24 00:20:57;;;;;;;1.05;1.05;;;4.10;99.90;;;;;;4974336;28;20695;-79
2022/04/24 00:23:23;;;;;;;0.63;0.63;;;4.10;99.90;;;;;;4988987;28;20231;-79
2022/04/24 00:25:49;;;;;;;0.60;0.60;;;4.10;99.90;;;;;;4973064;28;20196;-79
2022/04/24 00:28:14;;;;;;;0.50;0.50;;;4.20;99.90;;;;;;4973030;28;20212;-79
2022/04/24 00:30:40;;;;;;;0.80;0.80;;;4.20;99.90;;;;;;4992189;28;20317;-79
2022/04/24 00:33:06;;;;;;;0.73;0.73;;;4.10;99.90;;;;;;5012028;28;20195;-79
2022/04/24 00:35:31;;;;;;;0.50;0.50;;;4.20;99.90;;;;;;5011746;28;20256;-79
2022/04/24 00:37:58;;;;;;;0.80;0.80;;;4.20;99.90;;;;;;5013191;28;20199;-79
2022/04/24 00:40:23;;;;;;;0.73;0.73;;;4.20;99.90;;;;;;5011762;28;20670;-79
2022/04/24 00:42:49;;;;;;;0.70;0.70;;;4.20;99.90;;;;;;5011928;28;20227;-79
2022/04/24 00:45:15;;;;;;;0.68;0.68;;;4.20;99.90;;;;;;5005086;28;20238;-80
2022/04/24 00:47:41;;;;;;;0.60;0.60;;;4.20;99.90;;;;;;4976164;28;20200;-80
2022/04/24 00:50:08;;;;;;;0.80;0.80;;;4.30;99.90;;;;;;4975962;28;20310;-80
2022/04/24 00:52:34;;;;;;;0.63;0.63;;;4.20;99.90;;;;;;4975839;28;20651;-79
2022/04/24 00:55:00;;;;;;;0.70;0.70;;;4.30;99.90;;;;;;4975907;28;20271;-80
2022/04/24 00:57:26;;;;;;;0.68;0.68;;;4.30;99.90;;;;;;4975740;28;20654;-80
2022/04/24 00:59:52;;;;;;;1.23;1.13;;;4.30;99.90;;;;;;4975834;28;20199;-79
2022/04/24 01:02:17;;;;;;;0.70;0.70;;;4.30;99.90;;;;;;4993286;28;20222;-81
2022/04/24 01:04:43;;;;;;;0.63;0.63;;;4.30;99.90;;;;;;4975794;28;20209;-79
2022/04/24 01:07:10;;;;;;;0.80;0.80;;;4.40;99.90;;;;;;4975795;28;20218;-80
2022/04/24 01:09:36;;;;;;;0.60;0.60;;;4.40;99.90;;;;;;4975261;28;20207;-79
2022/04/24 01:12:03;;;;;;;0.70;0.70;;;4.30;99.90;;;;;;4993106;28;20183;-79
2022/04/24 01:14:30;;;;;;;0.80;0.80;;;4.40;99.90;;;;;;4975387;28;20690;-81
2022/04/24 01:16:56;;;;;;;0.70;0.70;;;4.40;99.90;;;;;;4973726;28;20291;-80
2022/04/24 01:19:24;;;;;;;0.75;0.75;;;4.40;99.90;;;;;;4972044;28;20679;-80
2022/04/24 01:21:49;;;;;;;0.65;0.65;;;4.40;99.90;;;;;;4972350;28;20274;-81
2022/04/24 01:24:19;;;;;;;0.70;0.70;;;4.40;99.90;;;;;;4987906;28;20196;-82
2022/04/24 01:26:45;;;;;;;0.60;0.60;;;4.40;99.90;;;;;;4972329;28;20226;-79
2022/04/24 01:29:11;;;;;;;0.90;0.90;;;4.40;99.90;;;;;;4972257;28;20687;-79
2022/04/24 01:31:38;;;;;;;0.70;0.70;;;4.40;99.90;;;;;;4975104;28;20270;-80
2022/04/24 01:34:04;;;;;;;0.80;0.80;;;4.40;99.90;;;;;;4976252;28;20691;-79
2022/04/24 01:36:29;;;;;;;0.80;0.80;;;4.40;99.90;;;;;;4977272;28;20224;-79
2022/04/24 01:38:55;;;;;;;0.68;0.68;;;4.40;99.90;;;;;;4976227;28;20207;-78
2022/04/24 01:41:21;;;;;;;0.75;0.75;;;4.40;99.90;;;;;;4982412;28;20203;-79
2022/04/24 01:43:48;;;;;;;0.70;0.70;;;4.40;99.90;;;;;;4979317;28;20195;-79
2022/04/24 01:46:14;;;;;;;0.70;0.70;;;4.40;99.90;;;;;;4979295;28;20674;-79
2022/04/24 01:48:40;;;;;;;0.70;0.70;;;4.40;99.90;;;;;;4996560;28;20589;-79
2022/04/24 01:51:08;;;;;;;0.57;0.57;;;4.40;99.90;;;;;;4979113;28;20239;-78
2022/04/24 01:53:34;;;;;;;0.70;0.70;;;4.40;99.90;;;;;;4978937;28;20626;-79
2022/04/24 01:56:05;;;;;;;0.63;0.63;;;4.40;99.90;;;;;;4996514;28;20693;-81
2022/04/24 01:58:32;;;;;;;0.70;0.70;;;4.40;99.90;;;;;;4978829;28;20246;-78
2022/04/24 02:00:58;;;;;;;0.70;0.70;;;4.40;99.90;;;;;;4980716;28;20199;-80
2022/04/24 02:03:26;;;;;;;0.60;0.60;;;4.40;99.90;;;;;;5014711;28;20227;-80
2022/04/24 02:05:52;;;;;;;0.70;0.70;;;4.40;99.90;;;;;;4996699;28;20294;-83
2022/04/24 02:08:18;;;;;;;2.78;1.48;;;4.40;99.90;;;;;;4978617;28;20258;-81
2022/04/24 02:10:44;;;;;;;0.80;0.80;;;4.40;99.90;;;;;;4994986;28;20306;-80
2022/04/24 02:13:09;;;;;;;0.60;0.60;;;4.40;99.90;;;;;;4976836;28;20279;-79
2022/04/24 02:15:36;;;;;;;0.50;0.50;;;4.30;99.90;;;;;;4991404;28;20235;-80
2022/04/24 02:18:02;;;;;;;0.60;0.60;;;4.30;99.90;;;;;;4991663;28;20567;-80
2022/04/24 02:20:31;;;;;;;0.60;0.60;;;4.30;99.90;;;;;;4975122;28;20236;-79
2022/04/24 02:22:58;;;;;;;0.82;0.82;;;4.30;99.90;;;;;;4991428;28;20246;-79
2022/04/24 02:25:25;;;;;;;0.60;0.60;;;4.30;99.90;;;;;;4975170;28;20204;-80
2022/04/24 02:27:53;;;;;;;0.70;0.70;;;4.30;99.90;;;;;;4975266;28;20343;-79
2022/04/24 02:30:24;;;;;;;0.60;0.60;;;4.30;99.90;;;;;;4975008;28;20220;-81
2022/04/24 02:32:50;;;;;;;0.60;0.60;;;4.30;99.90;;;;;;4975138;28;20218;-80
2022/04/24 02:35:16;;;;;;;0.68;0.68;;;4.30;99.90;;;;;;4975207;28;20193;-80
2022/04/24 02:37:43;;;;;;;0.55;0.55;;;4.30;99.90;;;;;;4977998;28;20659;-79
2022/04/24 02:40:09;;;;;;;0.60;0.60;;;4.30;99.90;;;;;;4978517;28;20674;-79
2022/04/24 02:42:36;;;;;;;0.82;0.82;;;4.30;99.90;;;;;;4977807;28;20663;-80
2022/04/24 02:45:06;;;;;;;0.70;0.70;;;4.30;99.90;;;;;;4994500;28;20227;-81
2022/04/24 02:47:33;;;;;;;0.60;0.60;;;4.40;99.90;;;;;;4977949;28;20204;-80
2022/04/24 02:49:59;;;;;;;0.60;0.60;;;4.40;99.90;;;;;;4995605;28;20573;-80
2022/04/24 02:52:24;;;;;;;0.63;0.63;;;4.40;99.90;;;;;;4977902;28;20282;-81
2022/04/24 02:54:50;;;;;;;0.70;0.70;;;4.30;99.90;;;;;;4978080;28;20609;-81
2022/04/24 02:57:16;;;;;;;0.80;0.80;;;4.30;99.90;;;;;;4978330;28;20547;-81
2022/04/24 02:59:50;;;;;;;0.70;0.70;;;4.30;99.90;;;;;;4977838;28;20204;-81
2022/04/24 03:02:16;;;;;;;0.70;0.70;;;4.30;99.90;;;;;;4994384;28;20227;-81
2022/04/24 03:04:45;;;;;;;0.70;0.70;;;4.30;99.90;;;;;;4994845;28;20210;-82
2022/04/24 03:07:11;;;;;;;0.68;0.68;;;4.30;99.90;;;;;;4992404;28;20573;-82
2022/04/24 03:09:37;;;;;;;0.70;0.70;;;4.30;99.90;;;;;;4990567;28;20244;-81
2022/04/24 03:12:03;;;;;;;0.80;0.80;;;4.30;99.90;;;;;;4990620;28;20196;-81
2022/04/24 03:14:29;;;;;;;0.80;0.80;;;4.30;99.90;;;;;;4975444;28;20679;-82
2022/04/24 03:16:54;;;;;;;0.70;0.70;;;4.30;99.90;;;;;;4990740;28;20231;-81
2022/04/24 03:19:20;;;;;;;1.10;1.00;;;4.30;99.90;;;;;;4990387;28;20196;-82
2022/04/24 03:21:49;;;;;;;0.60;0.60;;;4.30;99.90;;;;;;4990385;28;20232;-82
2022/04/24 03:24:15;;;;;;;0.60;0.60;;;4.30;99.90;;;;;;4977316;28;20675;-81
2022/04/24 03:26:41;;;;;;;0.60;0.60;;;4.30;99.90;;;;;;4993580;28;20253;-81
2022/04/24 03:29:06;;;;;;;0.65;0.65;;;4.30;99.90;;;;;;4993542;28;20195;-80
2022/04/24 03:31:32;;;;;;;0.70;0.70;;;4.30;99.90;;;;;;4993495;28;20657;-81
2022/04/24 03:33:59;;;;;;;0.65;0.65;;;4.30;99.90;;;;;;4990288;28;20210;-81
2022/04/24 03:36:26;;;;;;;0.60;0.60;;;4.30;99.90;;;;;;4993237;28;20551;-81
2022/04/24 03:38:52;;;;;;;0.55;0.55;;;4.30;99.90;;;;;;4977299;28;20199;-81
2022/04/24 03:41:17;;;;;;;0.65;0.65;;;4.30;99.90;;;;;;4977006;28;20573;-81
2022/04/24 03:43:43;;;;;;;0.65;0.65;;;4.30;99.90;;;;;;4977102;28;20254;-81
2022/04/24 03:46:09;;;;;;;0.80;0.80;;;4.30;99.90;;;;;;4993204;28;20200;-81
2022/04/24 03:48:34;;;;;;;0.80;0.80;;;4.30;99.90;;;;;;4976953;28;20199;-80
2022/04/24 03:51:01;;;;;;;0.65;0.65;;;4.30;99.90;;;;;;4993069;28;20679;-80
2022/04/24 03:53:27;;;;;;;0.70;0.70;;;4.30;99.90;;;;;;4976131;28;20242;-79
2022/04/24 03:55:53;;;;;;;0.70;0.70;;;4.30;99.90;;;;;;4976905;28;20199;-83
2022/04/24 03:58:19;;;;;;;0.80;0.80;;;4.40;99.90;;;;;;4992821;28;20603;-81
2022/04/24 04:00:45;;;;;;;0.70;0.70;;;4.40;99.90;;;;;;4976783;28;20206;-83
2022/04/24 04:03:11;;;;;;;0.70;0.70;;;4.30;99.90;;;;;;4994242;28;20195;-80
2022/04/24 04:05:37;;;;;;;0.68;0.68;;;4.30;99.90;;;;;;4992817;28;20227;-80
2022/04/24 04:08:03;;;;;;;0.70;0.70;;;4.30;99.90;;;;;;4993165;28;20200;-80
2022/04/24 04:10:29;;;;;;;0.80;0.80;;;4.40;99.90;;;;;;4992648;28;20671;-80
2022/04/24 04:12:55;;;;;;;0.80;0.80;;;4.30;99.90;;;;;;4992852;28;20195;-79
2022/04/24 04:15:21;;;;;;;0.80;0.80;;;4.30;99.90;;;;;;4993871;28;20590;-81
2022/04/24 04:17:47;;;;;;;0.77;0.77;;;4.30;99.90;;;;;;4993967;28;20191;-81
2022/04/24 04:20:13;;;;;;;0.70;0.70;;;4.40;99.90;;;;;;4992414;28;20235;-81
2022/04/24 04:22:52;;;;;;;0.57;0.57;;;4.40;99.90;;;;;;4993548;28;20203;-80
2022/04/24 04:25:19;;;;;;;0.70;0.70;;;4.30;99.90;;;;;;4992582;28;20214;-81
2022/04/24 04:27:45;;;;;;;0.80;0.80;;;4.40;99.90;;;;;;4992519;28;20204;-80
2022/04/24 04:30:11;;;;;;;0.90;0.90;;;4.40;99.90;;;;;;4989452;28;20269;-81
2022/04/24 04:32:37;;;;;;;0.80;0.80;;;4.30;99.90;;;;;;4976068;28;20761;-81
2022/04/24 04:35:04;;;;;;;0.75;0.75;;;4.40;99.90;;;;;;4993752;28;20191;-80
2022/04/24 04:37:31;;;;;;;0.70;0.70;;;4.40;99.90;;;;;;4976037;28;20199;-81
2022/04/24 04:39:57;;;;;;;0.80;0.80;;;4.40;99.90;;;;;;4976191;28;20203;-81
2022/04/24 04:42:23;;;;;;;0.70;0.70;;;4.40;99.90;;;;;;4975967;28;20709;-81
2022/04/24 04:44:49;;;;;;;0.70;0.70;;;4.50;99.90;;;;;;4976163;28;20199;-80
2022/04/24 04:47:15;;;;;;;0.90;0.90;;;4.50;99.90;;;;;;4976099;28;20211;-81
2022/04/24 04:49:40;;;;;;;0.80;0.80;;;4.60;99.90;;;;;;4993261;28;20203;-80
2022/04/24 04:52:06;;;;;;;0.73;0.73;;;4.50;99.90;;;;;;4976029;28;20245;-81
2022/04/24 04:54:32;;;;;;;0.70;0.70;;;4.60;99.90;;;;;;4975524;28;20200;-81
2022/04/24 04:56:57;;;;;;;0.85;0.85;;;4.60;99.90;;;;;;4967853;28;20235;-81
2022/04/24 04:59:23;;;;;;;0.70;0.70;;;4.70;99.90;;;;;;4973813;28;20196;-81
2022/04/24 05:01:49;;;;;;;0.80;0.80;;;4.70;99.90;;;;;;4973798;28;20208;-81
2022/04/24 05:04:14;;;;;;;0.50;0.50;;;4.70;99.90;;;;;;4988836;28;20709;-81
2022/04/24 05:06:40;;;;;;;0.70;0.70;;;4.80;99.90;;;;;;4988622;28;20564;-81
2022/04/24 05:09:08;;;;;;;0.70;0.70;;;4.80;99.90;;;;;;4973861;28;20279;-81
2022/04/24 05:11:34;;;;;;;0.70;0.70;;;4.90;99.90;;;;;;4988552;28;20691;-80
2022/04/24 05:14:00;;;;;;;0.82;0.82;;;4.90;99.90;;;;;;4988821;28;20324;-81
2022/04/24 05:16:25;;;;;;;0.80;0.80;;;4.90;99.90;;;;;;4988382;28;20288;-82
2022/04/24 05:18:51;;;;;;;0.70;0.70;;;5.00;99.90;;;;;;4988629;28;20200;-82
2022/04/24 05:21:17;;;;;;;0.70;0.70;;;5.00;99.90;;;;;;4988517;28;20326;-82
2022/04/24 05:23:45;;;;;;;0.70;0.70;;;5.10;99.90;;;;;;4988024;28;20203;-81
2022/04/24 05:26:12;;;;;;;0.70;0.70;;;5.10;99.90;;;;;;4990890;28;20249;-82
2022/04/24 05:28:38;;;;;;;0.70;0.70;;;5.20;99.90;;;;;;4992919;28;20231;-80
2022/04/24 05:31:05;;;;;;;0.70;0.70;;;5.20;99.90;;;;;;4993047;28;20619;-81
2022/04/24 05:33:31;;;;;;;0.70;0.70;;;5.20;99.90;;;;;;4992410;28;20202;-81
2022/04/24 05:35:57;;;;;;;0.60;0.60;;;5.30;99.90;;;;;;4991678;28;20785;-82
2022/04/24 05:38:23;;;;;;;7.72;1.98;;;5.30;99.90;;;;;;4975432;28;20282;-81
2022/04/24 05:40:48;;;;;;;0.70;0.70;;;5.40;99.90;;;;;;4975762;28;20527;-81
2022/04/24 05:43:15;;;;;;;0.70;0.70;;;5.40;99.90;;;;;;4975519;28;20199;-81
2022/04/24 05:45:40;;;;;;;0.70;0.70;;;5.40;99.90;;;;;;4975401;28;20211;-81
2022/04/24 05:48:06;;;;;;;0.70;0.70;;;5.50;99.90;;;;;;4992904;28;20571;-80
2022/04/24 05:50:33;;;;;;;0.80;0.80;;;5.50;99.90;;;;;;4974982;28;20207;-79
2022/04/24 05:52:59;;;;;;;0.80;0.80;;;5.40;99.90;;;;;;4975284;28;20192;-81
2022/04/24 05:55:25;;;;;;;0.73;0.73;;;5.40;99.90;;;;;;4992687;28;20188;-82
2022/04/24 05:57:52;;;;;;;0.70;0.70;;;5.50;99.90;;;;;;4975221;28;20208;-81
2022/04/24 06:00:20;;;;;;;0.70;0.70;;;5.50;99.90;;;;;;4991469;28;20296;-82
2022/04/24 06:02:45;;;;;;;0.70;0.70;;;5.50;99.90;;;;;;4991429;28;20210;-80
2022/04/24 06:05:11;;;;;;;0.70;0.70;;;5.60;99.90;;;;;;4991452;28;20204;-81
2022/04/24 06:07:39;;;;;;;0.80;0.80;;;5.60;99.90;;;;;;4991367;28;20412;-80
2022/04/24 06:10:06;;;;;;;0.65;0.65;;;5.70;99.90;;;;;;4991656;28;20218;-81
2022/04/24 06:12:32;;;;;;;0.70;0.70;;;5.80;99.90;;;;;;4992456;28;20224;-80
2022/04/24 06:15:05;;;;;;;0.60;0.60;;;5.80;99.90;;;;;;4991576;28;20290;-81
2022/04/24 06:17:30;;;;;;;0.70;0.70;;;5.90;99.90;;;;;;4993645;28;20709;-80
2022/04/24 06:19:56;;;;;;;0.70;0.70;;;5.90;99.90;;;;;;4996029;28;20251;-81
2022/04/24 06:22:22;;;;;;;0.70;0.70;;;5.90;99.90;;;;;;4994537;28;20195;-81
2022/04/24 06:24:50;;;;;;;0.60;0.60;;;5.70;99.90;;;;;;4978732;28;20258;-81
2022/04/24 06:27:16;;;;;;;0.70;0.70;;;5.70;99.90;;;;;;4978593;28;20294;-82
2022/04/24 06:29:42;;;;;;;0.70;0.70;;;5.80;99.90;;;;;;4995776;28;20222;-85
2022/04/24 06:32:08;;;;;;;0.75;0.75;;;5.80;99.90;;;;;;4977992;28;20569;-85
2022/04/24 06:34:36;;;;;;;0.80;0.80;;;5.80;99.90;;;;;;4978793;28;20200;-82
2022/04/24 06:37:02;;;;;;;0.70;0.70;;;5.90;99.90;;;;;;4978535;28;20195;-82
2022/04/24 06:39:30;;;;;;;0.70;0.70;;;6.00;99.90;;;;;;4978484;28;20713;-82
2022/04/24 06:41:58;;;;;;;0.70;0.70;;;6.10;99.90;;;;;;4978979;28;20203;-83
2022/04/24 06:44:39;;;;;;;0.70;0.70;;;6.20;99.90;;;;;;4978133;28;20199;-85
2022/04/24 06:47:05;;;;;;;0.63;0.63;;;6.20;99.90;;;;;;4978335;28;20201;-84
2022/04/24 06:49:31;;;;;;;0.70;0.70;;;6.30;99.90;;;;;;4994288;28;20215;-85
2022/04/24 06:51:57;;;;;;;0.80;0.80;;;6.40;99.90;;;;;;4978539;28;20722;-85
2022/04/24 06:55:22;;;;;;;0.70;0.70;;;6.60;99.90;;;;;;4977972;28;20637;-82
2022/04/24 06:57:51;;;;;;;0.80;0.80;;;6.80;99.90;;;;;;4976650;28;20290;-80
2022/04/24 07:00:19;;;;;;;0.57;0.57;;;7.00;99.90;;;;;;4994099;28;20334;-79
2022/04/24 07:02:45;;;;;;;0.60;0.60;;;7.00;99.90;;;;;;4993979;28;20203;-83
2022/04/24 07:05:10;;;;;;;0.70;0.70;;;7.20;99.90;;;;;;4994047;28;20576;-82
2022/04/24 07:07:36;;;;;;;0.70;0.70;;;7.30;99.90;;;;;;4993879;28;20199;-80
2022/04/24 07:10:03;;;;;;;0.63;0.63;;;7.50;99.90;;;;;;4993854;28;20223;-81
2022/04/24 07:12:29;;;;;;;0.70;0.70;;;7.80;99.90;;;;;;4993681;28;20602;-79
2022/04/24 07:14:58;;;;;;;0.80;0.80;;;7.80;99.90;;;;;;4993774;28;20199;-81
2022/04/24 07:17:23;;;;;;;0.95;0.95;;;7.90;99.90;;;;;;4993649;28;20285;-79
2022/04/24 07:19:49;;;;;;;0.70;0.70;;;7.80;99.90;;;;;;4993470;28;20567;-80
2022/04/24 07:22:16;;;;;;;0.70;0.70;;;7.80;99.90;;;;;;4977609;28;20612;-80
2022/04/24 07:24:42;;;;;;;0.70;0.70;;;8.00;99.90;;;;;;4993616;28;20227;-79
2022/04/24 07:27:08;;;;;;;0.70;0.70;;;8.20;99.90;;;;;;4993427;28;20207;-79
2022/04/24 07:29:33;;;;;;;0.60;0.60;;;8.40;99.90;;;;;;4993895;28;20247;-80
2022/04/24 07:31:59;;;;;;;0.70;0.70;;;8.50;99.90;;;;;;4993517;28;20199;-81
2022/04/24 07:34:25;;;;;;;0.60;0.60;;;8.60;99.90;;;;;;4994673;28;20219;-80
2022/04/24 07:36:50;;;;;;;0.60;0.60;;;8.70;99.90;;;;;;4993347;28;20205;-80
2022/04/24 07:39:16;;;;;;;0.60;0.60;;;8.80;99.90;;;;;;4993430;28;20203;-80
2022/04/24 07:41:42;;;;;;;0.68;0.68;;;8.80;99.90;;;;;;4991953;28;20258;-79
2022/04/24 07:44:07;;;;;;;0.60;0.60;;;9.00;99.90;;;;;;4993416;28;20206;-79
2022/04/24 07:46:34;;;;;;;0.65;0.65;;;9.20;99.90;;;;;;4993363;28;20198;-80
2022/04/24 07:49:00;;;;;;;0.60;0.60;;;9.50;99.90;;;;;;4976946;28;20202;-80
2022/04/24 07:51:26;;;;;;;0.70;0.70;;;9.50;99.90;;;;;;4993040;28;20748;-81
2022/04/24 07:53:52;;;;;;;0.60;0.60;;;9.30;99.90;;;;;;4994475;28;20270;-80
2022/04/24 07:56:17;;;;;;;0.60;0.60;;;9.30;99.90;;;;;;4994463;28;20195;-81
2022/04/24 07:58:43;;;;;;;0.50;0.50;;;9.50;99.90;;;;;;4993258;28;20199;-80
2022/04/24 08:01:11;;;;;;;0.80;0.80;;;9.70;99.60;;;;;;4992942;28;20202;-79
2022/04/24 08:03:36;;;;;;;0.60;0.60;;;10.00;99.70;;;;;;4992816;28;20294;-81
2022/04/24 08:06:02;;;;;;;0.60;0.60;;;10.30;99.10;;;;;;4993152;28;20620;-81
2022/04/24 08:08:28;;;;;;;2.05;0.80;;;10.30;97.90;;;;;;4993954;28;20211;-79
2022/04/24 08:10:57;;;;;;;0.50;0.50;;;9.90;97.80;;;;;;4994164;28;20235;-81
2022/04/24 08:13:26;;;;;;;0.80;0.80;;;9.80;97.90;;;;;;4992847;28;20286;-83
2022/04/24 08:16:04;;;;;;;0.60;0.60;;;9.90;97.60;;;;;;4992189;28;20207;-82
2022/04/24 08:18:30;;;;;;;0.70;0.70;;;10.40;97.50;;;;;;4976206;28;20210;-81
2022/04/24 08:20:55;;;;;;;0.60;0.60;;;10.70;95.60;;;;;;4976488;28;20231;-83
2022/04/24 08:23:21;;;;;;;0.52;0.52;;;10.90;94.50;;;;;;4972925;28;20196;-82
2022/04/24 08:25:47;;;;;;;0.60;0.60;;;11.30;95.30;;;;;;4973263;28;20660;-82
2022/04/24 08:28:18;;;;;;;0.60;0.60;;;11.60;93.90;;;;;;4973259;28;20561;-82
2022/04/24 08:30:46;;;;;;;0.65;0.65;;;11.60;92.50;;;;;;4973114;28;20576;-83
2022/04/24 08:33:12;;;;;;;0.50;0.50;;;11.80;92.40;;;;;;4973044;28;20196;-82
2022/04/24 08:35:40;;;;;;;0.50;0.50;;;11.60;91.00;;;;;;4991885;28;20219;-79
2022/04/24 08:38:07;;;;;;;0.60;0.60;;;11.70;90.70;;;;;;4992142;28;20203;-81
2022/04/24 08:40:33;;;;;;;0.50;0.50;;;11.70;89.20;;;;;;4975788;28;20203;-81
2022/04/24 08:43:00;;;;;;;0.50;0.50;;;11.70;90.00;;;;;;4976131;28;20670;-82
2022/04/24 08:45:31;;;;;;;0.57;0.57;;;11.90;90.20;;;;;;4975939;28;20560;-82
2022/04/24 08:47:57;;;;;;;0.50;0.50;;;11.90;89.90;;;;;;4992647;28;20208;-82
2022/04/24 08:50:28;;;;;;;0.60;0.60;;;12.20;88.00;;;;;;4992088;28;20686;-84
2022/04/24 08:52:56;;;;;;;0.50;0.50;;;12.60;87.50;;;;;;4992532;28;20207;-82
2022/04/24 08:55:27;;;;;;;0.50;0.50;;;12.70;86.30;;;;;;4992388;28;20200;-83
2022/04/24 08:57:56;;;;;;;0.57;0.57;;;12.60;85.80;;;;;;4992032;28;20196;-80
2022/04/24 09:00:22;;;;;;;0.50;0.50;;;12.90;83.70;;;;;;4991954;28;20203;-83
2022/04/24 09:02:49;;;;;;;0.50;0.50;;;13.30;84.70;;;;;;4992069;28;20662;-82
2022/04/24 09:05:15;;;;;;;0.63;0.63;;;13.60;80.90;;;;;;4992099;28;20250;-83
2022/04/24 09:07:43;;;;;;;0.40;0.40;;;13.40;82.90;;;;;;4991914;28;20207;-82
2022/04/24 09:10:12;;;;;;;0.40;0.40;;;13.50;83.30;;;;;;4991378;28;20301;-82
2022/04/24 09:12:39;;;;;;;0.40;0.40;;;13.80;81.20;;;;;;4979148;28;20746;-82
2022/04/24 09:15:07;;;;;;;0.50;0.50;;;13.50;78.00;;;;;;4993121;28;20266;-81
2022/04/24 09:17:36;;;;;;;0.50;0.50;;;13.10;79.50;;;;;;4975557;28;20195;-82
2022/04/24 09:20:19;;;;;;;0.50;0.50;;;12.70;77.90;;;;;;4985354;28;20592;-83
2022/04/24 09:22:47;;;;;;;0.60;0.60;;;12.20;85.10;;;;;;4949664;28;20193;-83
2022/04/24 09:25:13;;;;;;;0.50;0.50;;;12.70;83.40;;;;;;4966021;28;20212;-82
2022/04/24 09:27:40;;;;;;;0.50;0.50;;;13.30;78.60;;;;;;4966998;28;20260;-83
2022/04/24 09:30:12;;;;;;;0.50;0.50;;;13.80;79.00;;;;;;4933944;29;20713;-83
2022/04/24 09:32:56;;;;;;;0.50;0.50;;;14.40;76.70;;;;;;4965808;28;20292;-82
2022/04/24 09:35:30;;;;;;;0.40;0.40;;;14.90;74.00;;;;;;4979081;28;20660;-83
2022/04/24 09:38:10;;;;;;;0.50;0.50;;;14.90;73.40;;;;;;4968842;28;20204;-82
2022/04/24 09:41:02;;;;;;;0.70;0.70;;;14.70;75.00;;;;;;4954769;28;20201;-82
2022/04/24 09:43:28;;;;;;;0.50;0.50;;;14.10;73.80;;;;;;4946626;28;20260;-83
2022/04/24 09:45:54;;;;;;;0.50;0.50;;;13.60;78.10;;;;;;4965902;28;20221;-82
2022/04/24 09:48:21;;;;;;;1.20;0.88;;;13.20;76.30;;;;;;4948732;28;20209;-84
2022/04/24 09:50:54;;;;;;;0.50;0.50;;;12.60;78.10;;;;;;4935248;29;20213;-83
2022/04/24 09:53:21;;;;;;;0.47;0.47;;;12.00;80.10;;;;;;4937643;29;20205;-83
2022/04/24 09:55:50;;;;;;;0.50;0.50;;;11.70;80.80;;;;;;4953676;28;20341;-82
2022/04/24 09:58:22;;;;;;;0.50;0.50;;;11.30;80.90;;;;;;4969628;28;20198;-83
2022/04/24 10:00:50;;;;;;;0.88;0.88;;;11.00;81.60;;;;;;4969417;28;20609;-83
2022/04/24 10:03:16;;;;;;;0.52;0.52;;;10.90;83.50;;;;;;4938910;29;20282;-83
2022/04/24 10:05:45;;;;;;;0.52;0.52;;;10.80;83.10;;;;;;4953390;28;20216;-83
2022/04/24 10:08:11;;;;;;;0.50;0.50;;;11.20;83.40;;;;;;4964160;28;20248;-84
2022/04/24 10:10:40;;;;;;;0.60;0.60;;;11.40;84.00;;;;;;4956100;28;20244;-83
2022/04/24 10:13:11;;;;;;;0.50;0.50;;;11.80;82.50;;;;;;4956209;28;20207;-83
2022/04/24 10:15:49;;;;;;;0.50;0.50;;;12.00;79.60;;;;;;4955968;28;20596;-83
2022/04/24 10:18:39;;;;;;;0.70;0.70;;;11.60;80.00;;;;;;4956617;28;20566;-83
2022/04/24 10:21:30;;;;;;;0.60;0.60;;;11.50;79.60;;;;;;4984544;28;20247;-82
2022/04/24 10:24:07;;;;;;;0.60;0.60;;;11.50;79.60;;;;;;4988345;28;20201;-83
2022/04/24 10:26:33;;;;;;;0.70;0.70;;;11.50;80.90;;;;;;4988091;28;20196;-83
2022/04/24 10:29:06;;;;;;;0.50;0.50;;;11.50;80.90;;;;;;4972569;28;20215;-84
2022/04/24 10:31:44;;;;;;;0.50;0.50;;;11.50;79.00;;;;;;4984954;28;20219;-83
2022/04/24 10:34:11;;;;;;;0.50;0.50;;;11.50;80.30;;;;;;4991888;28;20227;-84
2022/04/24 10:36:37;;;;;;;0.40;0.40;;;11.40;80.20;;;;;;4975197;28;20196;-83
2022/04/24 10:39:19;;;;;;;0.70;0.70;;;11.30;81.00;;;;;;4975469;28;20192;-82
2022/04/24 10:42:07;;;;;;;0.57;0.57;;;11.00;81.20;;;;;;4975262;28;20232;-83
2022/04/24 10:44:33;;;;;;;0.50;0.50;;;10.90;83.00;;;;;;4975452;28;20200;-83
2022/04/24 10:47:10;;;;;;;0.60;0.60;;;10.90;81.30;;;;;;4977003;28;20551;-84
2022/04/24 10:49:36;;;;;;;0.40;0.40;;;11.00;83.10;;;;;;4974957;28;20569;-83
2022/04/24 10:52:04;;;;;;;0.60;0.60;;;10.80;84.00;;;;;;4974973;28;20203;-84
2022/04/24 10:54:36;;;;;;;0.50;0.50;;;10.70;85.40;;;;;;4975248;28;20730;-84
2022/04/24 10:57:15;;;;;;;0.50;0.50;;;10.40;85.90;;;;;;4975324;28;20204;-84
2022/04/24 10:59:52;;;;;;;0.50;0.50;;;10.00;86.50;;;;;;4975074;28;20219;-83
2022/04/24 11:02:21;;;;;;;0.50;0.50;;;10.00;86.70;;;;;;4976161;28;20231;-84
2022/04/24 11:05:12;;;;;;;;;;;;;;;;;;;;;
2022/04/24 11:07:38;;;;;;;0.60;0.60;;;10.20;88.00;;;;;;4976659;28;20226;-82
2022/04/24 11:10:06;;;;;;;0.52;0.52;;;10.30;86.80;;;;;;4975134;28;20303;-84
2022/04/24 11:12:35;;;;;;;0.50;0.50;;;10.40;86.00;;;;;;4974650;28;20255;-84
2022/04/24 11:15:11;;;;;;;0.50;0.50;;;10.50;85.40;;;;;;4974608;28;20201;-84
2022/04/24 11:17:37;;;;;;;0.52;0.52;;;10.90;86.70;;;;;;4974215;28;20196;-84
2022/04/24 11:20:09;;;;;;;0.52;0.52;;;11.10;84.40;;;;;;4971292;28;20600;-84
2022/04/24 11:22:53;;;;;;;0.50;0.50;;;11.40;81.20;;;;;;4956489;28;20196;-83
2022/04/24 11:25:24;;;;;;;0.50;0.50;;;11.50;82.70;;;;;;4956083;28;20356;-86
2022/04/24 11:27:58;;;;;;;0.75;0.75;;;11.30;79.60;;;;;;4954689;28;20196;-84
2022/04/24 11:30:31;;;;;;;0.60;0.60;;;11.40;81.00;;;;;;4954533;28;20579;-84
2022/04/24 11:33:05;;;;;;;0.70;0.70;;;11.20;80.50;;;;;;4938892;29;20193;-83
2022/04/24 11:35:37;;;;;;;0.60;0.60;;;10.90;80.60;;;;;;4955183;28;20209;-83
2022/04/24 11:38:07;;;;;;;0.60;0.60;;;10.80;80.10;;;;;;4935279;29;20665;-83
2022/04/24 11:40:33;;;;;;;0.80;0.80;;;10.60;80.00;;;;;;4936635;29;20265;-83
2022/04/24 11:43:06;;;;;;;0.60;0.60;;;10.40;82.50;;;;;;4951439;29;20211;-82
2022/04/24 11:51:12;;;;;;;0.60;0.60;;;11.50;80.90;;;;;;4936581;29;20268;-84
2022/04/24 11:53:38;;;;;;;1.15;1.05;;;11.90;79.80;;;;;;4951451;29;20213;-83
2022/04/24 11:56:05;;;;;;;0.70;0.70;;;11.60;77.70;;;;;;4951348;29;20201;-83
2022/04/24 11:58:42;;;;;;;4.53;1.70;;;11.40;77.80;;;;;;4951240;29;20229;-85
2022/04/24 12:01:10;;;;;;;0.50;0.50;;;11.40;78.50;;;;;;4954030;28;20205;-84
2022/04/24 12:03:38;;;;;;;0.60;0.60;;;11.50;77.20;;;;;;4954502;29;20216;-83
2022/04/24 12:06:06;;;;;;;0.52;0.52;;;11.70;78.20;;;;;;4956094;29;20227;-83
2022/04/24 12:08:48;;;;;;;0.88;0.88;;;12.40;77.60;;;;;;4954077;29;20197;-84
2022/04/24 12:11:27;;;;;;;0.47;0.47;;;13.80;75.60;;;;;;4954114;29;20213;-84
2022/04/24 12:14:03;;;;;;;0.50;0.50;;;13.70;71.90;;;;;;4954020;28;20201;-84
2022/04/24 12:16:30;;;;;;;0.55;0.55;;;13.30;72.50;;;;;;4954009;28;20208;-84
2022/04/24 12:18:57;;;;;;;0.80;0.80;;;12.60;73.00;;;;;;4955604;29;20211;-83
2022/04/24 12:21:24;;;;;;;0.50;0.50;;;12.60;74.80;;;;;;4964721;28;20244;-85
2022/04/24 12:23:58;;;;;;;0.50;0.50;;;12.80;73.40;;;;;;4938016;29;20566;-84
2022/04/24 12:26:28;;;;;;;0.57;0.57;;;12.40;73.30;;;;;;4934301;29;20296;-84
2022/04/24 12:29:02;;;;;;;0.65;0.65;;;12.80;73.60;;;;;;4919155;29;20559;-83
2022/04/24 12:31:28;;;;;;;0.50;0.50;;;12.80;72.40;;;;;;4918910;29;20212;-84
2022/04/24 12:33:59;;;;;;;1.50;0.93;;;12.70;73.00;;;;;;4919446;29;20257;-84
2022/04/24 12:36:25;;;;;;;0.60;0.60;;;12.40;72.20;;;;;;4918709;29;20198;-84
2022/04/24 12:38:58;;;;;;;0.50;0.50;;;12.30;73.60;;;;;;4933158;29;20260;-83
2022/04/24 12:41:26;;;;;;;0.50;0.50;;;12.50;74.70;;;;;;4937821;28;20201;-84
2022/04/24 12:47:00;;;;;;;0.50;0.50;;;12.50;73.20;;;;;;4949854;29;20212;-82
2022/04/24 12:49:28;;;;;;;0.50;0.50;;;12.20;73.70;;;;;;4937388;29;20200;-84
2022/04/24 12:51:58;;;;;;;0.63;0.63;;;12.40;74.20;;;;;;4958705;29;20193;-84
2022/04/24 12:54:24;;;;;;;0.50;0.50;;;12.40;74.20;;;;;;4937334;29;20196;-85
2022/04/24 12:56:50;;;;;;;0.52;0.52;;;12.20;74.90;;;;;;4947019;28;20295;-84
2022/04/24 12:59:16;;;;;;;0.50;0.50;;;12.10;74.10;;;;;;4973279;28;20200;-84
2022/04/24 13:01:44;;;;;;;0.50;0.50;;;12.00;74.80;;;;;;4989097;28;20197;-84
2022/04/24 13:04:14;;;;;;;0.60;0.60;;;12.30;74.40;;;;;;4974328;28;20207;-84
2022/04/24 13:06:47;;;;;;;0.50;0.50;;;13.10;72.50;;;;;;4989369;28;20708;-84
2022/04/24 13:09:15;;;;;;;0.60;0.60;;;13.70;70.00;;;;;;4956581;28;20203;-84